sensor_id;sensor_type;location;lat;lon;timestamp;temperature;humidity
11536;DHT22;5824;49.336;8.652;2024-03-08T00:02:13;6.60;1.00
11536;DHT22;5824;49.336;8.652;2024-03-08T00:04:39;6.50;1.00
11536;DHT22;5824;49.336;8.652;2024-03-08T00:07:04;6.50;1.00
11536;DHT22;5824;49.336;8.652;2024-03-08T00:09:30;6.50;1.00
11536;DHT22;5824;49.336;8.652;2024-03-08T00:11:56;6.40;1.00
11536;DHT22;5824;49.336;8.652;2024-03-08T00:14:21;6.40;1.00
11536;DHT22;5824;49.336;8.652;2024-03-08T00:16:47;6.60;1.00
11536;DHT22;5824;49.336;8.652;2024-03-08T00:19:12;6.30;1.00
11536;DHT22;5824;49.336;8.652;2024-03-08T00:21:38;6.30;1.00
11536;DHT22;5824;49.336;8.652;2024-03-08T00:24:04;6.20;1.00
11536;DHT22;5824;49.336;8.652;2024-03-08T00:26:29;6.20;1.00
11536;DHT22;5824;49.336;8.652;2024-03-08T00:28:55;6.10;1.00
11536;DHT22;5824;49.336;8.652;2024-03-08T00:31:20;6.10;1.00
11536;DHT22;5824;49.336;8.652;2024-03-08T00:33:46;6.30;1.00
11536;DHT22;5824;49.336;8.652;2024-03-08T00:36:12;6.30;1.00
11536;DHT22;5824;49.336;8.652;2024-03-08T00:38:37;6.10;1.00
11536;DHT22;5824;49.336;8.652;2024-03-08T00:41:03;6.00;1.00
11536;DHT22;5824;49.336;8.652;2024-03-08T00:43:28;6.00;1.00
11536;DHT22;5824;49.336;8.652;2024-03-08T00:45:55;6.00;1.00
11536;DHT22;5824;49.336;8.652;2024-03-08T00:48:21;6.00;1.00
11536;DHT22;5824;49.336;8.652;2024-03-08T00:50:47;5.90;1.00
11536;DHT22;5824;49.336;8.652;2024-03-08T00:53:12;5.90;1.00
11536;DHT22;5824;49.336;8.652;2024-03-08T00:55:38;5.90;1.00
11536;DHT22;5824;49.336;8.652;2024-03-08T00:58:07;5.90;1.00
11536;DHT22;5824;49.336;8.652;2024-03-08T01:00:34;5.90;1.00
11536;DHT22;5824;49.336;8.652;2024-03-08T01:03:00;7.20;1.00
11536;DHT22;5824;49.336;8.652;2024-03-08T01:05:25;5.80;1.00
11536;DHT22;5824;49.336;8.652;2024-03-08T01:07:51;5.80;1.00
11536;DHT22;5824;49.336;8.652;2024-03-08T01:10:16;5.70;1.00
11536;DHT22;5824;49.336;8.652;2024-03-08T01:12:42;5.70;1.00
11536;DHT22;5824;49.336;8.652;2024-03-08T01:15:10;5.70;1.00
11536;DHT22;5824;49.336;8.652;2024-03-08T01:17:36;5.70;1.00
11536;DHT22;5824;49.336;8.652;2024-03-08T01:20:03;4.50;1.00
11536;DHT22;5824;49.336;8.652;2024-03-08T01:22:29;5.60;1.00
11536;DHT22;5824;49.336;8.652;2024-03-08T01:24:55;5.60;1.00
11536;DHT22;5824;49.336;8.652;2024-03-08T01:27:21;5.60;1.00
11536;DHT22;5824;49.336;8.652;2024-03-08T01:29:47;5.50;1.00
11536;DHT22;5824;49.336;8.652;2024-03-08T01:32:13;5.50;1.00
11536;DHT22;5824;49.336;8.652;2024-03-08T01:34:38;5.70;1.00
11536;DHT22;5824;49.336;8.652;2024-03-08T01:37:04;5.90;1.00
11536;DHT22;5824;49.336;8.652;2024-03-08T01:39:30;5.50;1.00
11536;DHT22;5824;49.336;8.652;2024-03-08T01:41:55;5.50;1.00
11536;DHT22;5824;49.336;8.652;2024-03-08T01:44:21;5.40;1.00
11536;DHT22;5824;49.336;8.652;2024-03-08T01:46:47;5.40;1.00
11536;DHT22;5824;49.336;8.652;2024-03-08T01:49:14;5.30;1.00
11536;DHT22;5824;49.336;8.652;2024-03-08T01:51:41;5.30;1.00
11536;DHT22;5824;49.336;8.652;2024-03-08T01:54:06;5.30;1.00
11536;DHT22;5824;49.336;8.652;2024-03-08T01:56:35;5.30;1.00
11536;DHT22;5824;49.336;8.652;2024-03-08T01:59:01;5.60;1.00
11536;DHT22;5824;49.336;8.652;2024-03-08T02:01:27;5.30;1.00
11536;DHT22;5824;49.336;8.652;2024-03-08T02:03:53;5.20;1.00
11536;DHT22;5824;49.336;8.652;2024-03-08T02:06:18;5.20;1.00
11536;DHT22;5824;49.336;8.652;2024-03-08T02:08:44;5.70;1.00
11536;DHT22;5824;49.336;8.652;2024-03-08T02:11:10;5.70;1.00
11536;DHT22;5824;49.336;8.652;2024-03-08T02:13:36;5.40;1.00
11536;DHT22;5824;49.336;8.652;2024-03-08T02:16:02;5.10;1.00
11536;DHT22;5824;49.336;8.652;2024-03-08T02:18:29;5.10;1.00
11536;DHT22;5824;49.336;8.652;2024-03-08T02:20:55;5.10;1.00
11536;DHT22;5824;49.336;8.652;2024-03-08T02:23:22;5.60;1.00
11536;DHT22;5824;49.336;8.652;2024-03-08T02:25:48;5.00;1.00
11536;DHT22;5824;49.336;8.652;2024-03-08T02:28:14;5.00;1.00
11536;DHT22;5824;49.336;8.652;2024-03-08T02:30:40;5.00;1.00
11536;DHT22;5824;49.336;8.652;2024-03-08T02:33:07;5.00;1.00
11536;DHT22;5824;49.336;8.652;2024-03-08T02:35:33;5.00;1.00
11536;DHT22;5824;49.336;8.652;2024-03-08T02:37:59;5.30;1.00
11536;DHT22;5824;49.336;8.652;2024-03-08T02:40:25;5.30;1.00
11536;DHT22;5824;49.336;8.652;2024-03-08T02:42:50;5.10;1.00
11536;DHT22;5824;49.336;8.652;2024-03-08T02:45:16;5.40;1.00
11536;DHT22;5824;49.336;8.652;2024-03-08T02:47:41;5.20;1.00
11536;DHT22;5824;49.336;8.652;2024-03-08T02:50:07;4.80;1.00
11536;DHT22;5824;49.336;8.652;2024-03-08T02:52:34;4.90;1.00
11536;DHT22;5824;49.336;8.652;2024-03-08T02:55:01;4.90;1.00
11536;DHT22;5824;49.336;8.652;2024-03-08T02:57:26;4.80;1.00
11536;DHT22;5824;49.336;8.652;2024-03-08T02:59:53;4.80;1.00
11536;DHT22;5824;49.336;8.652;2024-03-08T03:02:19;4.80;1.00
11536;DHT22;5824;49.336;8.652;2024-03-08T03:04:44;5.20;1.00
11536;DHT22;5824;49.336;8.652;2024-03-08T03:07:10;4.80;1.00
11536;DHT22;5824;49.336;8.652;2024-03-08T03:09:36;4.80;1.00
11536;DHT22;5824;49.336;8.652;2024-03-08T03:12:02;4.80;1.00
11536;DHT22;5824;49.336;8.652;2024-03-08T03:14:28;4.70;1.00
11536;DHT22;5824;49.336;8.652;2024-03-08T03:16:53;4.70;1.00
11536;DHT22;5824;49.336;8.652;2024-03-08T03:19:19;4.70;1.00
11536;DHT22;5824;49.336;8.652;2024-03-08T03:21:45;4.60;1.00
11536;DHT22;5824;49.336;8.652;2024-03-08T03:24:11;4.60;1.00
11536;DHT22;5824;49.336;8.652;2024-03-08T03:26:38;5.00;1.00
11536;DHT22;5824;49.336;8.652;2024-03-08T03:29:07;4.60;1.00
11536;DHT22;5824;49.336;8.652;2024-03-08T03:31:33;4.60;1.00
11536;DHT22;5824;49.336;8.652;2024-03-08T03:33:59;4.50;1.00
11536;DHT22;5824;49.336;8.652;2024-03-08T03:36:28;4.50;1.00
11536;DHT22;5824;49.336;8.652;2024-03-08T03:38:54;4.50;1.00
11536;DHT22;5824;49.336;8.652;2024-03-08T03:41:32;4.50;1.00
11536;DHT22;5824;49.336;8.652;2024-03-08T03:43:58;4.50;1.00
11536;DHT22;5824;49.336;8.652;2024-03-08T03:46:24;4.50;1.00
11536;DHT22;5824;49.336;8.652;2024-03-08T03:48:49;4.90;1.00
11536;DHT22;5824;49.336;8.652;2024-03-08T03:51:15;4.40;1.00
11536;DHT22;5824;49.336;8.652;2024-03-08T03:53:41;4.40;1.00
11536;DHT22;5824;49.336;8.652;2024-03-08T03:56:07;4.40;1.00
11536;DHT22;5824;49.336;8.652;2024-03-08T03:58:33;4.50;1.00
11536;DHT22;5824;49.336;8.652;2024-03-08T04:00:58;4.40;1.00
11536;DHT22;5824;49.336;8.652;2024-03-08T04:03:24;4.40;1.00
11536;DHT22;5824;49.336;8.652;2024-03-08T04:05:49;4.40;1.00
11536;DHT22;5824;49.336;8.652;2024-03-08T04:08:15;4.30;1.00
11536;DHT22;5824;49.336;8.652;2024-03-08T04:10:42;4.30;1.00
11536;DHT22;5824;49.336;8.652;2024-03-08T04:13:08;4.30;1.00
11536;DHT22;5824;49.336;8.652;2024-03-08T04:15:34;4.30;1.00
11536;DHT22;5824;49.336;8.652;2024-03-08T04:18:00;4.30;1.00
11536;DHT22;5824;49.336;8.652;2024-03-08T04:20:26;4.30;1.00
11536;DHT22;5824;49.336;8.652;2024-03-08T04:22:51;4.60;1.00
11536;DHT22;5824;49.336;8.652;2024-03-08T04:25:17;4.20;1.00
11536;DHT22;5824;49.336;8.652;2024-03-08T04:27:43;4.20;1.00
11536;DHT22;5824;49.336;8.652;2024-03-08T04:30:10;4.20;1.00
11536;DHT22;5824;49.336;8.652;2024-03-08T04:32:35;4.20;1.00
11536;DHT22;5824;49.336;8.652;2024-03-08T04:35:01;4.20;1.00
11536;DHT22;5824;49.336;8.652;2024-03-08T04:37:27;4.20;1.00
11536;DHT22;5824;49.336;8.652;2024-03-08T04:39:55;4.10;1.00
11536;DHT22;5824;49.336;8.652;2024-03-08T04:42:20;4.10;1.00
11536;DHT22;5824;49.336;8.652;2024-03-08T04:44:46;4.10;1.00
11536;DHT22;5824;49.336;8.652;2024-03-08T04:47:12;4.10;1.00
11536;DHT22;5824;49.336;8.652;2024-03-08T04:49:38;4.00;1.00
11536;DHT22;5824;49.336;8.652;2024-03-08T04:52:04;4.00;1.00
11536;DHT22;5824;49.336;8.652;2024-03-08T04:54:30;3.70;1.00
11536;DHT22;5824;49.336;8.652;2024-03-08T04:56:56;4.00;1.00
11536;DHT22;5824;49.336;8.652;2024-03-08T04:59:21;3.90;1.00
11536;DHT22;5824;49.336;8.652;2024-03-08T05:01:47;4.40;1.00
11536;DHT22;5824;49.336;8.652;2024-03-08T05:04:13;4.00;1.00
11536;DHT22;5824;49.336;8.652;2024-03-08T05:06:38;3.90;1.00
11536;DHT22;5824;49.336;8.652;2024-03-08T05:09:04;4.30;1.00
11536;DHT22;5824;49.336;8.652;2024-03-08T05:11:46;3.90;1.00
11536;DHT22;5824;49.336;8.652;2024-03-08T05:14:13;3.90;1.00
11536;DHT22;5824;49.336;8.652;2024-03-08T05:16:43;3.80;1.00
11536;DHT22;5824;49.336;8.652;2024-03-08T05:19:08;4.00;1.00
11536;DHT22;5824;49.336;8.652;2024-03-08T05:21:34;3.80;1.00
11536;DHT22;5824;49.336;8.652;2024-03-08T05:23:59;4.20;1.00
11536;DHT22;5824;49.336;8.652;2024-03-08T05:26:25;3.80;1.00
11536;DHT22;5824;49.336;8.652;2024-03-08T05:28:50;3.80;1.00
11536;DHT22;5824;49.336;8.652;2024-03-08T05:31:20;3.80;1.00
11536;DHT22;5824;49.336;8.652;2024-03-08T05:33:47;3.80;1.00
11536;DHT22;5824;49.336;8.652;2024-03-08T05:36:13;1.60;1.00
11536;DHT22;5824;49.336;8.652;2024-03-08T05:38:40;3.80;1.00
11536;DHT22;5824;49.336;8.652;2024-03-08T05:41:07;3.70;1.00
11536;DHT22;5824;49.336;8.652;2024-03-08T05:43:33;4.10;1.00
11536;DHT22;5824;49.336;8.652;2024-03-08T05:45:58;3.70;1.00
11536;DHT22;5824;49.336;8.652;2024-03-08T05:48:24;3.70;1.00
11536;DHT22;5824;49.336;8.652;2024-03-08T05:50:50;4.20;1.00
11536;DHT22;5824;49.336;8.652;2024-03-08T05:53:16;4.20;1.00
11536;DHT22;5824;49.336;8.652;2024-03-08T05:55:41;3.70;1.00
11536;DHT22;5824;49.336;8.652;2024-03-08T05:58:07;3.70;1.00
11536;DHT22;5824;49.336;8.652;2024-03-08T06:00:33;3.70;1.00
11536;DHT22;5824;49.336;8.652;2024-03-08T06:02:59;4.10;1.00
11536;DHT22;5824;49.336;8.652;2024-03-08T06:05:24;3.70;1.00
11536;DHT22;5824;49.336;8.652;2024-03-08T06:07:50;3.70;1.00
11536;DHT22;5824;49.336;8.652;2024-03-08T06:10:18;3.70;1.00
11536;DHT22;5824;49.336;8.652;2024-03-08T06:12:44;3.70;1.00
11536;DHT22;5824;49.336;8.652;2024-03-08T06:15:11;3.90;1.00
11536;DHT22;5824;49.336;8.652;2024-03-08T06:17:40;3.70;1.00
11536;DHT22;5824;49.336;8.652;2024-03-08T06:20:06;3.70;1.00
11536;DHT22;5824;49.336;8.652;2024-03-08T06:22:37;3.70;1.00
11536;DHT22;5824;49.336;8.652;2024-03-08T06:25:06;3.80;1.00
11536;DHT22;5824;49.336;8.652;2024-03-08T06:27:32;3.80;1.00
11536;DHT22;5824;49.336;8.652;2024-03-08T06:29:59;3.80;1.00
11536;DHT22;5824;49.336;8.652;2024-03-08T06:32:25;3.80;1.00
11536;DHT22;5824;49.336;8.652;2024-03-08T06:34:50;3.90;1.00
11536;DHT22;5824;49.336;8.652;2024-03-08T06:37:16;3.90;1.00
11536;DHT22;5824;49.336;8.652;2024-03-08T06:39:49;4.00;1.00
11536;DHT22;5824;49.336;8.652;2024-03-08T06:42:16;4.00;1.00
11536;DHT22;5824;49.336;8.652;2024-03-08T06:44:42;4.00;1.00
11536;DHT22;5824;49.336;8.652;2024-03-08T06:47:14;4.10;1.00
11536;DHT22;5824;49.336;8.652;2024-03-08T06:49:42;4.10;1.00
11536;DHT22;5824;49.336;8.652;2024-03-08T06:52:07;4.50;1.00
11536;DHT22;5824;49.336;8.652;2024-03-08T06:54:34;4.40;1.00
11536;DHT22;5824;49.336;8.652;2024-03-08T06:57:04;4.40;1.00
11536;DHT22;5824;49.336;8.652;2024-03-08T06:59:33;4.50;1.00
11536;DHT22;5824;49.336;8.652;2024-03-08T07:02:01;4.50;1.00
11536;DHT22;5824;49.336;8.652;2024-03-08T07:04:27;4.50;1.00
11536;DHT22;5824;49.336;8.652;2024-03-08T07:06:58;5.00;1.00
11536;DHT22;5824;49.336;8.652;2024-03-08T07:09:24;4.60;1.00
11536;DHT22;5824;49.336;8.652;2024-03-08T07:11:50;4.70;1.00
11536;DHT22;5824;49.336;8.652;2024-03-08T07:14:21;4.80;1.00
11536;DHT22;5824;49.336;8.652;2024-03-08T07:16:47;4.80;1.00
11536;DHT22;5824;49.336;8.652;2024-03-08T07:19:12;4.70;1.00
11536;DHT22;5824;49.336;8.652;2024-03-08T07:21:38;4.70;1.00
11536;DHT22;5824;49.336;8.652;2024-03-08T07:24:04;5.10;1.00
11536;DHT22;5824;49.336;8.652;2024-03-08T07:26:47;4.80;1.00
11536;DHT22;5824;49.336;8.652;2024-03-08T07:29:15;4.80;1.00
11536;DHT22;5824;49.336;8.652;2024-03-08T07:31:41;4.80;1.00
11536;DHT22;5824;49.336;8.652;2024-03-08T07:34:06;4.90;1.00
11536;DHT22;5824;49.336;8.652;2024-03-08T07:36:33;4.90;1.00
11536;DHT22;5824;49.336;8.652;2024-03-08T07:38:59;5.50;1.00
11536;DHT22;5824;49.336;8.652;2024-03-08T07:41:24;5.10;1.00
11536;DHT22;5824;49.336;8.652;2024-03-08T07:43:50;5.10;1.00
11536;DHT22;5824;49.336;8.652;2024-03-08T07:46:16;5.10;1.00
11536;DHT22;5824;49.336;8.652;2024-03-08T07:48:43;5.50;1.00
11536;DHT22;5824;49.336;8.652;2024-03-08T07:51:10;5.20;1.00
11536;DHT22;5824;49.336;8.652;2024-03-08T07:53:37;5.40;1.00
11536;DHT22;5824;49.336;8.652;2024-03-08T07:56:04;5.50;1.00
11536;DHT22;5824;49.336;8.652;2024-03-08T07:58:30;5.50;1.00
11536;DHT22;5824;49.336;8.652;2024-03-08T08:00:56;5.50;1.00
11536;DHT22;5824;49.336;8.652;2024-03-08T08:03:21;5.50;1.00
11536;DHT22;5824;49.336;8.652;2024-03-08T08:05:47;5.80;1.00
11536;DHT22;5824;49.336;8.652;2024-03-08T08:08:14;6.00;1.00
11536;DHT22;5824;49.336;8.652;2024-03-08T08:10:40;5.70;1.00
11536;DHT22;5824;49.336;8.652;2024-03-08T08:13:06;5.70;1.00
11536;DHT22;5824;49.336;8.652;2024-03-08T08:15:31;5.90;1.00
11536;DHT22;5824;49.336;8.652;2024-03-08T08:17:59;5.80;1.00
11536;DHT22;5824;49.336;8.652;2024-03-08T08:20:25;5.90;1.00
11536;DHT22;5824;49.336;8.652;2024-03-08T08:22:51;5.90;1.00
11536;DHT22;5824;49.336;8.652;2024-03-08T08:25:17;6.20;1.00
11536;DHT22;5824;49.336;8.652;2024-03-08T08:27:45;6.30;1.00
11536;DHT22;5824;49.336;8.652;2024-03-08T08:30:12;6.40;1.00
11536;DHT22;5824;49.336;8.652;2024-03-08T08:32:38;6.50;1.00
11536;DHT22;5824;49.336;8.652;2024-03-08T08:35:05;6.60;1.00
11536;DHT22;5824;49.336;8.652;2024-03-08T08:37:31;6.80;1.00
11536;DHT22;5824;49.336;8.652;2024-03-08T08:39:57;6.90;1.00
11536;DHT22;5824;49.336;8.652;2024-03-08T08:42:23;7.40;1.00
11536;DHT22;5824;49.336;8.652;2024-03-08T08:44:49;8.00;1.00
11536;DHT22;5824;49.336;8.652;2024-03-08T08:49:44;8.30;1.00
11536;DHT22;5824;49.336;8.652;2024-03-08T08:52:11;8.70;1.00
11536;DHT22;5824;49.336;8.652;2024-03-08T08:54:37;8.70;1.00
11536;DHT22;5824;49.336;8.652;2024-03-08T08:57:02;8.40;1.00
11536;DHT22;5824;49.336;8.652;2024-03-08T08:59:33;8.30;1.00
11536;DHT22;5824;49.336;8.652;2024-03-08T09:02:01;8.40;1.00
11536;DHT22;5824;49.336;8.652;2024-03-08T09:04:27;8.70;1.00
11536;DHT22;5824;49.336;8.652;2024-03-08T09:06:53;8.90;1.00
11536;DHT22;5824;49.336;8.652;2024-03-08T09:09:19;9.40;1.00
11536;DHT22;5824;49.336;8.652;2024-03-08T09:11:45;9.60;1.00
11536;DHT22;5824;49.336;8.652;2024-03-08T09:14:11;9.80;1.00
11536;DHT22;5824;49.336;8.652;2024-03-08T09:16:37;10.10;1.00
11536;DHT22;5824;49.336;8.652;2024-03-08T09:19:02;10.90;1.00
11536;DHT22;5824;49.336;8.652;2024-03-08T09:21:28;10.80;1.00
11536;DHT22;5824;49.336;8.652;2024-03-08T09:23:54;10.70;1.00
11536;DHT22;5824;49.336;8.652;2024-03-08T09:26:19;10.60;1.00
11536;DHT22;5824;49.336;8.652;2024-03-08T09:28:45;10.60;1.00
11536;DHT22;5824;49.336;8.652;2024-03-08T09:31:11;10.70;1.00
11536;DHT22;5824;49.336;8.652;2024-03-08T09:33:37;10.70;1.00
11536;DHT22;5824;49.336;8.652;2024-03-08T09:36:05;10.50;1.00
11536;DHT22;5824;49.336;8.652;2024-03-08T09:38:31;10.10;1.00
11536;DHT22;5824;49.336;8.652;2024-03-08T09:40:56;9.60;1.00
11536;DHT22;5824;49.336;8.652;2024-03-08T09:43:22;9.20;1.00
11536;DHT22;5824;49.336;8.652;2024-03-08T09:45:49;8.70;1.00
11536;DHT22;5824;49.336;8.652;2024-03-08T09:48:17;8.50;1.00
11536;DHT22;5824;49.336;8.652;2024-03-08T09:50:44;8.40;1.00
11536;DHT22;5824;49.336;8.652;2024-03-08T09:53:12;8.50;1.00
11536;DHT22;5824;49.336;8.652;2024-03-08T09:55:38;8.80;1.00
11536;DHT22;5824;49.336;8.652;2024-03-08T09:58:08;8.90;1.00
11536;DHT22;5824;49.336;8.652;2024-03-08T10:00:53;8.80;1.00
11536;DHT22;5824;49.336;8.652;2024-03-08T10:03:20;8.80;1.00
11536;DHT22;5824;49.336;8.652;2024-03-08T10:05:45;8.70;1.00
11536;DHT22;5824;49.336;8.652;2024-03-08T10:08:12;8.70;1.00
11536;DHT22;5824;49.336;8.652;2024-03-08T10:10:38;8.70;1.00
11536;DHT22;5824;49.336;8.652;2024-03-08T10:13:08;8.70;1.00
11536;DHT22;5824;49.336;8.652;2024-03-08T10:15:33;8.70;1.00
11536;DHT22;5824;49.336;8.652;2024-03-08T10:17:59;8.70;1.00
11536;DHT22;5824;49.336;8.652;2024-03-08T10:20:25;9.00;1.00
11536;DHT22;5824;49.336;8.652;2024-03-08T10:22:52;9.40;1.00
11536;DHT22;5824;49.336;8.652;2024-03-08T10:27:45;9.80;1.00
11536;DHT22;5824;49.336;8.652;2024-03-08T10:30:14;9.80;1.00
11536;DHT22;5824;49.336;8.652;2024-03-08T10:32:41;9.80;1.00
11536;DHT22;5824;49.336;8.652;2024-03-08T10:35:07;9.80;1.00
11536;DHT22;5824;49.336;8.652;2024-03-08T10:37:38;9.60;1.00
11536;DHT22;5824;49.336;8.652;2024-03-08T10:40:10;9.70;1.00
11536;DHT22;5824;49.336;8.652;2024-03-08T10:45:30;10.00;1.00
11536;DHT22;5824;49.336;8.652;2024-03-08T10:48:09;9.90;1.00
11536;DHT22;5824;49.336;8.652;2024-03-08T10:50:36;9.70;1.00
11536;DHT22;5824;49.336;8.652;2024-03-08T10:53:03;9.90;1.00
11536;DHT22;5824;49.336;8.652;2024-03-08T10:55:33;9.90;1.00
11536;DHT22;5824;49.336;8.652;2024-03-08T10:57:59;10.70;1.00
11536;DHT22;5824;49.336;8.652;2024-03-08T11:00:25;11.90;1.00
11536;DHT22;5824;49.336;8.652;2024-03-08T11:02:53;11.90;1.00
11536;DHT22;5824;49.336;8.652;2024-03-08T11:05:51;11.50;1.00
11536;DHT22;5824;49.336;8.652;2024-03-08T11:10:53;12.80;1.00
11536;DHT22;5824;49.336;8.652;2024-03-08T11:13:41;14.70;1.00
11536;DHT22;5824;49.336;8.652;2024-03-08T11:19:06;14.60;1.00
11536;DHT22;5824;49.336;8.652;2024-03-08T11:21:36;14.40;1.00
11536;DHT22;5824;49.336;8.652;2024-03-08T11:24:12;13.70;1.00
11536;DHT22;5824;49.336;8.652;2024-03-08T11:26:42;13.30;1.00
11536;DHT22;5824;49.336;8.652;2024-03-08T11:29:43;13.40;1.00
11536;DHT22;5824;49.336;8.652;2024-03-08T11:32:15;14.10;1.00
11536;DHT22;5824;49.336;8.652;2024-03-08T11:34:45;15.00;1.00
11536;DHT22;5824;49.336;8.652;2024-03-08T11:37:13;16.80;1.00
11536;DHT22;5824;49.336;8.652;2024-03-08T11:39:41;18.40;1.00
11536;DHT22;5824;49.336;8.652;2024-03-08T11:42:11;19.70;1.00
11536;DHT22;5824;49.336;8.652;2024-03-08T11:44:37;21.90;1.00
11536;DHT22;5824;49.336;8.652;2024-03-08T11:47:07;21.80;1.00
11536;DHT22;5824;49.336;8.652;2024-03-08T11:49:33;21.60;1.00
11536;DHT22;5824;49.336;8.652;2024-03-08T11:51:58;20.90;1.00
11536;DHT22;5824;49.336;8.652;2024-03-08T11:54:24;20.60;1.00
11536;DHT22;5824;49.336;8.652;2024-03-08T11:56:52;20.60;1.00
11536;DHT22;5824;49.336;8.652;2024-03-08T11:59:17;20.80;1.00
11536;DHT22;5824;49.336;8.652;2024-03-08T12:01:43;21.30;1.00
11536;DHT22;5824;49.336;8.652;2024-03-08T12:04:12;21.30;1.00
11536;DHT22;5824;49.336;8.652;2024-03-08T12:06:39;21.90;1.00
11536;DHT22;5824;49.336;8.652;2024-03-08T12:09:08;21.80;1.00
11536;DHT22;5824;49.336;8.652;2024-03-08T12:11:34;21.00;1.00
11536;DHT22;5824;49.336;8.652;2024-03-08T12:14:01;21.10;1.00
11536;DHT22;5824;49.336;8.652;2024-03-08T12:16:27;21.50;1.00
11536;DHT22;5824;49.336;8.652;2024-03-08T12:18:53;21.40;1.00
11536;DHT22;5824;49.336;8.652;2024-03-08T12:21:22;21.70;1.00
11536;DHT22;5824;49.336;8.652;2024-03-08T12:24:08;22.20;1.00
11536;DHT22;5824;49.336;8.652;2024-03-08T12:26:35;22.80;1.00
11536;DHT22;5824;49.336;8.652;2024-03-08T12:29:26;23.10;1.00
11536;DHT22;5824;49.336;8.652;2024-03-08T12:31:58;22.70;1.00
11536;DHT22;5824;49.336;8.652;2024-03-08T12:34:26;22.90;1.00
11536;DHT22;5824;49.336;8.652;2024-03-08T12:36:52;23.00;1.00
11536;DHT22;5824;49.336;8.652;2024-03-08T12:39:19;22.90;1.00
11536;DHT22;5824;49.336;8.652;2024-03-08T12:41:55;23.10;1.00
11536;DHT22;5824;49.336;8.652;2024-03-08T12:44:22;24.80;1.00
11536;DHT22;5824;49.336;8.652;2024-03-08T12:46:48;24.80;1.00
11536;DHT22;5824;49.336;8.652;2024-03-08T12:49:14;25.10;1.00
11536;DHT22;5824;49.336;8.652;2024-03-08T12:51:46;26.00;1.00
11536;DHT22;5824;49.336;8.652;2024-03-08T12:54:11;27.40;1.00
11536;DHT22;5824;49.336;8.652;2024-03-08T12:56:37;28.00;1.00
11536;DHT22;5824;49.336;8.652;2024-03-08T12:59:04;28.00;1.00
11536;DHT22;5824;49.336;8.652;2024-03-08T13:01:31;27.10;1.00
11536;DHT22;5824;49.336;8.652;2024-03-08T13:04:00;25.80;1.00
11536;DHT22;5824;49.336;8.652;2024-03-08T13:06:29;25.00;1.00
11536;DHT22;5824;49.336;8.652;2024-03-08T13:08:56;24.70;1.00
11536;DHT22;5824;49.336;8.652;2024-03-08T13:11:22;24.40;1.00
11536;DHT22;5824;49.336;8.652;2024-03-08T13:13:49;24.20;1.00
11536;DHT22;5824;49.336;8.652;2024-03-08T13:16:15;25.40;1.00
11536;DHT22;5824;49.336;8.652;2024-03-08T13:18:43;25.50;1.00
11536;DHT22;5824;49.336;8.652;2024-03-08T13:21:09;25.20;1.00
11536;DHT22;5824;49.336;8.652;2024-03-08T13:23:36;24.40;1.00
11536;DHT22;5824;49.336;8.652;2024-03-08T13:26:09;24.20;1.00
11536;DHT22;5824;49.336;8.652;2024-03-08T13:28:45;23.70;1.00
11536;DHT22;5824;49.336;8.652;2024-03-08T13:31:10;22.90;1.00
11536;DHT22;5824;49.336;8.652;2024-03-08T13:33:37;23.20;1.00
11536;DHT22;5824;49.336;8.652;2024-03-08T13:36:08;23.30;1.00
11536;DHT22;5824;49.336;8.652;2024-03-08T13:38:41;23.40;1.00
11536;DHT22;5824;49.336;8.652;2024-03-08T13:41:08;23.70;1.00
11536;DHT22;5824;49.336;8.652;2024-03-08T13:43:34;23.90;1.00
11536;DHT22;5824;49.336;8.652;2024-03-08T13:45:59;24.00;1.00
11536;DHT22;5824;49.336;8.652;2024-03-08T13:48:25;23.10;1.00
11536;DHT22;5824;49.336;8.652;2024-03-08T13:50:50;22.50;1.00
11536;DHT22;5824;49.336;8.652;2024-03-08T13:53:17;21.90;1.00
11536;DHT22;5824;49.336;8.652;2024-03-08T13:55:42;21.50;1.00
11536;DHT22;5824;49.336;8.652;2024-03-08T13:58:08;21.50;1.00
11536;DHT22;5824;49.336;8.652;2024-03-08T14:00:35;21.70;1.00
11536;DHT22;5824;49.336;8.652;2024-03-08T14:03:01;22.10;1.00
11536;DHT22;5824;49.336;8.652;2024-03-08T14:05:31;22.40;1.00
11536;DHT22;5824;49.336;8.652;2024-03-08T14:08:00;22.40;1.00
11536;DHT22;5824;49.336;8.652;2024-03-08T14:10:29;21.80;1.00
11536;DHT22;5824;49.336;8.652;2024-03-08T14:12:57;21.30;1.00
11536;DHT22;5824;49.336;8.652;2024-03-08T14:15:22;20.60;1.00
11536;DHT22;5824;49.336;8.652;2024-03-08T14:17:57;22.20;1.00
11536;DHT22;5824;49.336;8.652;2024-03-08T14:20:23;19.30;1.00
11536;DHT22;5824;49.336;8.652;2024-03-08T14:22:55;18.60;1.00
11536;DHT22;5824;49.336;8.652;2024-03-08T14:25:22;18.10;1.00
11536;DHT22;5824;49.336;8.652;2024-03-08T14:27:52;17.70;1.00
11536;DHT22;5824;49.336;8.652;2024-03-08T14:30:27;16.90;1.00
11536;DHT22;5824;49.336;8.652;2024-03-08T14:33:04;16.10;1.00
11536;DHT22;5824;49.336;8.652;2024-03-08T14:35:31;15.60;1.00
11536;DHT22;5824;49.336;8.652;2024-03-08T14:37:57;15.40;1.00
11536;DHT22;5824;49.336;8.652;2024-03-08T14:40:23;15.60;1.00
11536;DHT22;5824;49.336;8.652;2024-03-08T14:42:49;15.60;1.00
11536;DHT22;5824;49.336;8.652;2024-03-08T14:45:16;15.40;1.00
11536;DHT22;5824;49.336;8.652;2024-03-08T14:47:42;15.30;1.00
11536;DHT22;5824;49.336;8.652;2024-03-08T14:50:08;15.20;1.00
11536;DHT22;5824;49.336;8.652;2024-03-08T14:52:35;15.20;1.00
11536;DHT22;5824;49.336;8.652;2024-03-08T14:55:01;15.00;1.00
11536;DHT22;5824;49.336;8.652;2024-03-08T14:57:28;14.90;1.00
11536;DHT22;5824;49.336;8.652;2024-03-08T14:59:54;14.70;1.00
11536;DHT22;5824;49.336;8.652;2024-03-08T15:02:19;14.70;1.00
11536;DHT22;5824;49.336;8.652;2024-03-08T15:04:47;14.50;1.00
11536;DHT22;5824;49.336;8.652;2024-03-08T15:07:22;14.40;1.00
11536;DHT22;5824;49.336;8.652;2024-03-08T15:09:48;14.40;1.00
11536;DHT22;5824;49.336;8.652;2024-03-08T15:12:13;14.30;1.00
11536;DHT22;5824;49.336;8.652;2024-03-08T15:14:40;14.20;1.00
11536;DHT22;5824;49.336;8.652;2024-03-08T15:17:09;14.30;1.00
11536;DHT22;5824;49.336;8.652;2024-03-08T15:19:38;14.40;1.00
11536;DHT22;5824;49.336;8.652;2024-03-08T15:22:04;14.40;1.00
11536;DHT22;5824;49.336;8.652;2024-03-08T15:24:29;14.20;1.00
11536;DHT22;5824;49.336;8.652;2024-03-08T15:26:54;14.20;1.00
11536;DHT22;5824;49.336;8.652;2024-03-08T15:29:21;14.10;1.00
11536;DHT22;5824;49.336;8.652;2024-03-08T15:31:52;13.90;1.00
11536;DHT22;5824;49.336;8.652;2024-03-08T15:34:19;13.60;1.00
11536;DHT22;5824;49.336;8.652;2024-03-08T15:36:49;13.60;1.00
11536;DHT22;5824;49.336;8.652;2024-03-08T15:39:16;13.40;1.00
11536;DHT22;5824;49.336;8.652;2024-03-08T15:41:42;13.50;1.00
11536;DHT22;5824;49.336;8.652;2024-03-08T15:44:09;13.50;1.00
11536;DHT22;5824;49.336;8.652;2024-03-08T15:46:37;13.40;1.00
11536;DHT22;5824;49.336;8.652;2024-03-08T15:49:05;13.30;1.00
11536;DHT22;5824;49.336;8.652;2024-03-08T15:51:31;13.40;1.00
11536;DHT22;5824;49.336;8.652;2024-03-08T15:54:01;13.40;1.00
11536;DHT22;5824;49.336;8.652;2024-03-08T15:56:32;13.30;1.00
11536;DHT22;5824;49.336;8.652;2024-03-08T15:58:58;13.20;1.00
11536;DHT22;5824;49.336;8.652;2024-03-08T16:01:24;13.10;1.00
11536;DHT22;5824;49.336;8.652;2024-03-08T16:03:50;13.10;1.00
11536;DHT22;5824;49.336;8.652;2024-03-08T16:06:16;13.00;1.00
11536;DHT22;5824;49.336;8.652;2024-03-08T16:08:47;13.00;1.00
11536;DHT22;5824;49.336;8.652;2024-03-08T16:11:13;12.90;1.00
11536;DHT22;5824;49.336;8.652;2024-03-08T16:13:38;13.00;1.00
11536;DHT22;5824;49.336;8.652;2024-03-08T16:16:04;13.00;1.00
11536;DHT22;5824;49.336;8.652;2024-03-08T16:18:31;13.00;1.00
11536;DHT22;5824;49.336;8.652;2024-03-08T16:21:00;13.00;1.00
11536;DHT22;5824;49.336;8.652;2024-03-08T16:23:26;12.90;1.00
11536;DHT22;5824;49.336;8.652;2024-03-08T16:25:52;12.80;1.00